createdAt,value
2022-11-09T00:01:04.774Z,1.10
2022-11-09T00:03:32.571Z,1.02
2022-11-09T00:06:00.388Z,1.52
2022-11-09T00:08:28.267Z,1.00
2022-11-09T00:10:55.657Z,1.13
2022-11-09T00:13:23.267Z,1.00
2022-11-09T00:15:50.769Z,1.30
2022-11-09T00:18:17.966Z,1.20
2022-11-09T00:20:47.944Z,1.27
2022-11-09T00:23:18.988Z,1.27
2022-11-09T00:25:47.628Z,0.93
2022-11-09T00:28:15.294Z,1.23
2022-11-09T00:30:42.487Z,1.23
2022-11-09T00:33:12.065Z,1.30
2022-11-09T00:35:39.577Z,1.27
2022-11-09T00:38:06.885Z,1.23
2022-11-09T00:40:34.227Z,1.10
2022-11-09T00:43:01.414Z,1.30
2022-11-09T00:45:28.611Z,1.00
2022-11-09T00:47:55.862Z,1.33
2022-11-09T00:50:23.206Z,1.38
2022-11-09T00:52:50.775Z,0.98
2022-11-09T00:55:20.926Z,1.10
2022-11-09T00:57:52.001Z,1.25
2022-11-09T01:00:23.437Z,1.30
2022-11-09T01:02:51.207Z,1.10
2022-11-09T01:05:19.809Z,1.10
2022-11-09T01:07:50.259Z,0.85
2022-11-09T01:10:17.496Z,1.40
2022-11-09T01:12:46.967Z,1.08
2022-11-09T01:15:15.483Z,1.08
2022-11-09T01:17:42.691Z,0.77
2022-11-09T01:20:10.799Z,0.77
2022-11-09T01:22:37.998Z,1.35
2022-11-09T01:25:05.832Z,1.17
2022-11-09T01:27:33.673Z,0.93
2022-11-09T01:30:02.826Z,1.20
2022-11-09T01:32:33.195Z,0.80
2022-11-09T01:35:00.399Z,1.50
2022-11-09T01:37:30.176Z,0.98
2022-11-09T01:39:57.372Z,1.23
2022-11-09T01:42:25.844Z,1.00
2022-11-09T01:45:17.956Z,0.90
2022-11-09T01:47:48.051Z,1.00
2022-11-09T01:50:24.804Z,0.80
2022-11-09T01:52:52.050Z,1.02
2022-11-09T01:55:23.683Z,0.88
2022-11-09T01:57:57.823Z,1.13
2022-11-09T02:00:25.225Z,1.10
2022-11-09T02:03:05.124Z,0.70
2022-11-09T02:05:36.327Z,1.80
2022-11-09T02:08:06.403Z,0.98
2022-11-09T02:10:49.033Z,1.40
2022-11-09T02:13:20.050Z,0.73
2022-11-09T02:15:49.807Z,1.08
2022-11-09T02:18:17.832Z,0.95
2022-11-09T02:20:49.771Z,0.98
2022-11-09T02:23:18.109Z,0.95
2022-11-09T02:25:51.277Z,1.00
2022-11-09T02:28:19.461Z,1.10
2022-11-09T02:30:50.253Z,0.95
2022-11-09T02:33:18.228Z,0.70
2022-11-09T02:35:46.088Z,1.00
2022-11-09T02:38:14.929Z,1.00
2022-11-09T02:40:46.967Z,1.10
2022-11-09T02:43:16.364Z,1.15
2022-11-09T02:45:45.058Z,1.33
2022-11-09T02:48:12.290Z,1.20
2022-11-09T02:50:39.499Z,1.50
2022-11-09T02:53:06.682Z,1.20
2022-11-09T02:55:37.402Z,2.17
2022-11-09T02:58:04.594Z,1.83
2022-11-09T03:00:32.015Z,1.20
2022-11-09T03:02:59.205Z,1.30
2022-11-09T03:05:26.580Z,1.55
2022-11-09T03:07:53.767Z,1.90
2022-11-09T03:10:22.625Z,1.17
2022-11-09T03:12:50.128Z,1.13
2022-11-09T03:15:17.919Z,0.70
2022-11-09T03:17:46.819Z,1.05
2022-11-09T03:20:14.835Z,1.15
2022-11-09T03:22:44.047Z,1.00
2022-11-09T03:25:11.410Z,1.17
2022-11-09T03:27:39.242Z,1.05
2022-11-09T03:30:07.210Z,0.90
2022-11-09T03:32:35.070Z,0.73
2022-11-09T03:35:02.570Z,1.00
2022-11-09T03:37:29.841Z,0.98
2022-11-09T03:39:57.113Z,0.98
2022-11-09T03:42:24.303Z,1.23
2022-11-09T03:44:51.572Z,1.10
2022-11-09T03:47:18.777Z,1.77
2022-11-09T03:49:46.011Z,0.88
2022-11-09T03:52:13.231Z,1.17
2022-11-09T03:54:40.435Z,1.10
2022-11-09T03:57:08.147Z,1.55
2022-11-09T03:59:36.175Z,1.30
2022-11-09T04:02:03.403Z,1.40
2022-11-09T04:04:30.729Z,1.13
2022-11-09T04:06:58.009Z,1.38
2022-11-09T04:09:25.253Z,1.50
2022-11-09T04:11:52.481Z,1.23
2022-11-09T04:14:19.784Z,1.55
2022-11-09T04:16:47.029Z,1.30
2022-11-09T04:19:14.281Z,1.10
2022-11-09T04:21:41.446Z,1.30
2022-11-09T04:24:08.796Z,1.10
2022-11-09T04:26:36.118Z,1.25
2022-11-09T04:29:03.710Z,1.20
2022-11-09T04:31:31.022Z,0.93
2022-11-09T04:33:58.252Z,1.02
2022-11-09T04:36:25.810Z,1.05
2022-11-09T04:38:53.013Z,1.02
2022-11-09T04:41:20.263Z,1.10
2022-11-09T04:43:47.573Z,1.30
2022-11-09T04:46:14.767Z,1.10
2022-11-09T04:48:42.038Z,0.88
2022-11-09T04:51:10.495Z,0.85
2022-11-09T04:53:38.731Z,1.10
2022-11-09T04:56:07.193Z,1.20
2022-11-09T04:58:34.834Z,2.10
2022-11-09T05:01:08.122Z,2.05
2022-11-09T05:03:35.814Z,1.80
2022-11-09T05:06:23.421Z,1.83
2022-11-09T05:08:50.987Z,1.92
2022-11-09T05:11:18.423Z,1.17
2022-11-09T05:13:45.711Z,1.00
2022-11-09T05:16:13.427Z,1.00
2022-11-09T05:18:40.680Z,1.30
2022-11-09T05:21:07.822Z,1.20
2022-11-09T05:23:53.784Z,1.20
2022-11-09T05:26:21.287Z,1.13
2022-11-09T05:28:48.607Z,0.98
2022-11-09T05:31:15.801Z,0.90
2022-11-09T05:33:43.002Z,1.10
2022-11-09T05:36:10.270Z,1.50
2022-11-09T05:38:37.439Z,1.10
2022-11-09T05:41:04.881Z,1.10
2022-11-09T05:43:32.094Z,1.30
2022-11-09T05:46:02.571Z,1.27
2022-11-09T05:48:33.763Z,1.45
2022-11-09T05:51:05.064Z,1.77
2022-11-09T05:53:32.653Z,1.38
2022-11-09T05:56:08.598Z,1.92
2022-11-09T05:58:38.604Z,1.65
2022-11-09T06:01:07.389Z,1.70
2022-11-09T06:03:34.776Z,1.48
2022-11-09T06:06:08.330Z,1.30
2022-11-09T06:08:36.621Z,1.48
2022-11-09T06:11:06.586Z,1.15
2022-11-09T06:13:34.410Z,1.60
2022-11-09T06:16:03.673Z,1.13
2022-11-09T06:18:32.755Z,1.80
2022-11-09T06:21:01.896Z,2.10
2022-11-09T06:23:31.683Z,1.80
2022-11-09T06:26:01.001Z,1.45
2022-11-09T06:28:28.836Z,1.42
2022-11-09T06:31:00.643Z,1.30
2022-11-09T06:33:30.573Z,1.33
2022-11-09T06:35:58.613Z,1.88
2022-11-09T06:38:26.518Z,1.25
2022-11-09T06:40:55.824Z,1.30
2022-11-09T06:43:24.025Z,1.52
2022-11-09T06:45:52.627Z,1.70
2022-11-09T06:48:20.377Z,1.90
2022-11-09T06:50:48.849Z,1.80
2022-11-09T06:53:17.833Z,1.48
2022-11-09T06:55:50.114Z,1.73
2022-11-09T06:58:19.403Z,1.52
2022-11-09T07:00:46.997Z,1.88
2022-11-09T07:03:15.971Z,1.85
2022-11-09T07:05:43.812Z,2.00
2022-11-09T07:08:11.415Z,1.60
2022-11-09T07:10:39.624Z,1.67
2022-11-09T07:13:07.878Z,1.80
2022-11-09T07:15:36.543Z,1.90
2022-11-09T07:18:05.980Z,1.90
2022-11-09T07:20:33.469Z,1.60
2022-11-09T07:23:03.605Z,1.88
2022-11-09T07:25:32.061Z,1.92
2022-11-09T07:28:04.477Z,1.88
2022-11-09T07:30:31.853Z,1.70
2022-11-09T07:33:09.236Z,2.00
2022-11-09T07:35:37.935Z,1.98
2022-11-09T07:38:05.492Z,2.83
2022-11-09T07:40:33.341Z,4.13
2022-11-09T07:43:01.808Z,3.78
2022-11-09T07:45:29.941Z,2.53
2022-11-09T07:47:58.765Z,2.80
2022-11-09T07:50:26.856Z,2.00
2022-11-09T07:52:58.900Z,1.98
2022-11-09T07:55:27.376Z,2.75
2022-11-09T07:58:06.816Z,2.10
2022-11-09T08:00:36.551Z,1.73
2022-11-09T08:03:04.995Z,1.25
2022-11-09T08:05:33.092Z,1.55
2022-11-09T08:08:02.842Z,1.33
2022-11-09T08:10:31.554Z,1.40
2022-11-09T08:13:01.389Z,1.70
2022-11-09T08:15:29.484Z,1.42
2022-11-09T08:18:05.091Z,3.97
2022-11-09T08:20:33.206Z,2.58
2022-11-09T08:23:04.029Z,1.33
2022-11-09T08:25:35.748Z,1.20
2022-11-09T08:28:03.794Z,1.80
2022-11-09T08:30:31.929Z,1.40
2022-11-09T08:33:01.132Z,1.70
2022-11-09T08:35:29.608Z,1.63
2022-11-09T08:37:59.835Z,1.50
2022-11-09T08:40:28.833Z,1.65
2022-11-09T08:43:00.246Z,1.48
2022-11-09T08:45:27.526Z,1.80
2022-11-09T08:47:59.429Z,1.67
2022-11-09T08:50:28.363Z,1.67
2022-11-09T08:52:55.903Z,3.03
2022-11-09T08:55:23.627Z,2.55
2022-11-09T08:57:56.101Z,2.35
2022-11-09T09:00:23.465Z,1.88
2022-11-09T09:02:51.069Z,3.00
2022-11-09T09:05:18.760Z,3.05
2022-11-09T09:07:46.138Z,2.20
2022-11-09T09:10:13.422Z,1.90
2022-11-09T09:12:40.938Z,1.83
2022-11-09T09:15:08.746Z,1.77
2022-11-09T09:17:36.019Z,1.30
2022-11-09T09:20:05.188Z,0.90
2022-11-09T09:22:33.350Z,1.13
2022-11-09T09:25:00.851Z,1.25
2022-11-09T09:27:29.472Z,1.13
2022-11-09T09:29:57.346Z,0.63
2022-11-09T09:32:24.951Z,0.90
2022-11-09T09:34:52.489Z,1.50
2022-11-09T09:37:19.747Z,0.98
2022-11-09T09:39:47.186Z,1.13
2022-11-09T09:42:27.435Z,0.93
2022-11-09T09:45:08.301Z,1.38
2022-11-09T09:47:56.782Z,0.82
2022-11-09T09:50:50.727Z,1.40
2022-11-09T09:53:31.155Z,1.92
2022-11-09T09:56:11.099Z,1.73
2022-11-09T09:58:45.919Z,1.00
2022-11-09T10:01:22.772Z,1.30
2022-11-09T10:03:50.935Z,0.90
2022-11-09T10:06:38.135Z,0.80
2022-11-09T10:09:44.767Z,0.80
2022-11-09T10:12:24.265Z,0.90
2022-11-09T10:15:11.749Z,1.02
2022-11-09T10:18:06.086Z,0.88
2022-11-09T10:21:00.325Z,0.90
2022-11-09T10:23:49.637Z,0.70
2022-11-09T10:26:19.416Z,1.10
2022-11-09T10:29:14.891Z,0.98
2022-11-09T10:31:45.800Z,0.82
2022-11-09T10:34:20.614Z,1.23
2022-11-09T10:36:55.094Z,1.00
2022-11-09T10:39:27.932Z,1.10
2022-11-09T10:42:13.568Z,0.82
2022-11-09T10:45:11.173Z,1.00
2022-11-09T10:47:57.750Z,0.80
2022-11-09T10:50:53.866Z,0.85
2022-11-09T10:53:39.646Z,0.98
2022-11-09T10:56:32.939Z,0.77
2022-11-09T10:59:48.795Z,0.88
2022-11-09T11:02:43.414Z,0.88
2022-11-09T11:05:30.656Z,0.60
2022-11-09T11:08:25.958Z,1.05
2022-11-09T11:11:33.392Z,0.80
2022-11-09T11:14:33.518Z,0.90
2022-11-09T11:17:35.791Z,1.00
2022-11-09T11:20:38.431Z,1.10
2022-11-09T11:23:26.307Z,1.08
2022-11-09T11:26:35.182Z,1.23
2022-11-09T11:29:39.689Z,1.02
2022-11-09T11:32:25.597Z,1.00
2022-11-09T11:35:23.190Z,1.23
2022-11-09T11:38:22.853Z,1.20
2022-11-09T11:41:50.437Z,1.40
2022-11-09T11:45:34.070Z,1.00
2022-11-09T11:48:41.409Z,0.88
2022-11-09T11:51:36.282Z,1.58
2022-11-09T11:54:47.109Z,2.25
2022-11-09T11:57:38.786Z,1.58
2022-11-09T12:00:24.914Z,1.15
2022-11-09T12:03:37.309Z,1.00
2022-11-09T12:06:52.170Z,1.23
2022-11-09T12:09:50.034Z,0.75
2022-11-09T12:12:53.996Z,0.73
2022-11-09T12:15:52.386Z,0.60
2022-11-09T12:19:01.878Z,1.05
2022-11-09T12:22:12.819Z,1.15
2022-11-09T12:25:02.950Z,1.25
2022-11-09T12:28:10.569Z,1.17
2022-11-09T12:31:41.555Z,0.90
2022-11-09T12:34:31.782Z,1.40
2022-11-09T12:37:23.289Z,1.33
2022-11-09T12:40:25.115Z,1.67
2022-11-09T12:43:20.008Z,0.95
2022-11-09T12:46:07.452Z,1.02
2022-11-09T12:48:58.218Z,1.25
2022-11-09T12:51:44.511Z,1.00
2022-11-09T12:54:30.488Z,1.13
2022-11-09T12:57:22.785Z,1.88
2022-11-09T13:00:29.181Z,1.40
2022-11-09T13:03:30.067Z,0.90
2022-11-09T13:06:22.193Z,1.73
2022-11-09T13:09:17.057Z,1.65
2022-11-09T13:12:29.363Z,1.27
2022-11-09T13:15:26.521Z,1.00
2022-11-09T13:18:34.978Z,1.55
2022-11-09T13:21:21.455Z,1.00
2022-11-09T13:24:34.079Z,1.10
2022-11-09T13:27:44.914Z,1.40
2022-11-09T13:30:42.140Z,1.00
2022-11-09T13:33:32.579Z,1.25
2022-11-09T13:36:19.515Z,0.95
2022-11-09T13:39:24.167Z,0.90
2022-11-09T13:42:30.375Z,0.90
2022-11-09T13:45:32.700Z,1.48
2022-11-09T13:48:54.219Z,1.08
2022-11-09T13:51:48.002Z,1.17
2022-11-09T13:54:36.362Z,1.35
2022-11-09T13:57:24.640Z,1.55
2022-11-09T14:00:25.783Z,1.42
2022-11-09T14:03:26.950Z,1.77
2022-11-09T14:06:13.569Z,1.42
2022-11-09T14:09:00.717Z,1.27
2022-11-09T14:11:57.127Z,1.02
2022-11-09T14:14:57.770Z,0.90
2022-11-09T14:18:07.889Z,1.63
2022-11-09T14:21:14.192Z,1.20
2022-11-09T14:24:13.977Z,1.40
2022-11-09T14:27:08.840Z,1.42
2022-11-09T14:29:57.164Z,1.58
2022-11-09T14:32:49.224Z,1.70
2022-11-09T14:35:36.754Z,1.67
2022-11-09T14:38:30.623Z,1.63
2022-11-09T14:41:27.880Z,0.95
2022-11-09T14:44:19.926Z,1.75
2022-11-09T14:47:10.263Z,1.95
2022-11-09T14:49:56.633Z,1.30
2022-11-09T14:52:42.442Z,0.95
2022-11-09T14:55:29.244Z,1.52
2022-11-09T14:58:15.454Z,1.33
2022-11-09T15:01:07.597Z,1.42
2022-11-09T15:04:19.963Z,1.10
2022-11-09T15:07:06.103Z,1.30
2022-11-09T15:10:08.051Z,2.10
2022-11-09T15:12:58.328Z,1.52
2022-11-09T15:15:51.579Z,1.20
2022-11-09T15:18:45.983Z,0.90
2022-11-09T15:21:36.346Z,1.50
2022-11-09T15:24:27.727Z,1.05
2022-11-09T15:27:36.894Z,1.00
2022-11-09T15:30:43.159Z,0.70
2022-11-09T15:33:34.441Z,1.33
2022-11-09T15:36:22.897Z,0.95
2022-11-09T15:39:20.742Z,1.40
2022-11-09T15:42:09.806Z,2.40
2022-11-09T15:44:59.144Z,1.75
2022-11-09T15:47:55.880Z,1.80
2022-11-09T15:50:42.401Z,1.40
2022-11-09T15:53:28.368Z,1.60
2022-11-09T15:56:20.958Z,2.13
2022-11-09T15:59:07.612Z,1.30
2022-11-09T16:01:53.638Z,1.52
2022-11-09T16:04:39.957Z,2.42
2022-11-09T16:07:25.915Z,1.08
2022-11-09T16:10:13.770Z,1.45
2022-11-09T16:12:59.556Z,1.00
2022-11-09T16:15:45.549Z,1.10
2022-11-09T16:18:32.309Z,1.23
2022-11-09T16:21:18.574Z,1.33
2022-11-09T16:24:04.664Z,1.20
2022-11-09T16:26:50.622Z,1.13
2022-11-09T16:29:36.690Z,1.42
2022-11-09T16:32:22.397Z,1.38
2022-11-09T16:35:26.054Z,1.80
2022-11-09T16:38:13.416Z,1.13
2022-11-09T16:41:01.209Z,1.50
2022-11-09T16:43:50.203Z,3.03
2022-11-09T16:46:35.934Z,3.60
2022-11-09T16:49:21.654Z,3.47
2022-11-09T16:52:07.726Z,2.40
2022-11-09T16:54:53.622Z,2.03
2022-11-09T16:57:39.721Z,1.83
2022-11-09T17:00:42.521Z,2.17
2022-11-09T17:03:31.938Z,2.13
2022-11-09T17:06:17.877Z,2.13
2022-11-09T17:09:03.897Z,2.45
2022-11-09T17:11:49.829Z,2.08
2022-11-09T17:14:35.780Z,2.20
2022-11-09T17:17:22.950Z,1.80
2022-11-09T17:20:09.533Z,1.60
2022-11-09T17:22:55.447Z,2.00
2022-11-09T17:25:41.691Z,1.90
2022-11-09T17:28:28.054Z,1.98
2022-11-09T17:31:17.274Z,1.50
2022-11-09T17:34:03.185Z,3.28
2022-11-09T17:37:03.509Z,3.50
2022-11-09T17:39:50.132Z,2.85
2022-11-09T17:42:36.150Z,2.70
2022-11-09T17:45:22.031Z,3.42
2022-11-09T17:48:08.136Z,4.25
2022-11-09T17:50:53.735Z,2.55
2022-11-09T17:53:39.769Z,2.88
2022-11-09T17:56:25.802Z,3.40
2022-11-09T17:59:12.167Z,4.68
2022-11-09T18:01:58.805Z,4.82
2022-11-09T18:04:44.623Z,3.40
2022-11-09T18:07:31.063Z,3.05
2022-11-09T18:10:16.944Z,2.50
2022-11-09T18:13:02.711Z,3.17
2022-11-09T18:15:48.363Z,2.65
2022-11-09T18:18:35.113Z,2.03
2022-11-09T18:21:23.000Z,3.65
2022-11-09T18:24:08.817Z,3.17
2022-11-09T18:26:54.925Z,2.28
2022-11-09T18:29:41.449Z,2.35
2022-11-09T18:32:27.024Z,2.75
2022-11-09T18:35:12.889Z,4.38
2022-11-09T18:37:59.051Z,3.63
2022-11-09T18:40:45.004Z,3.28
2022-11-09T18:43:31.370Z,3.67
2022-11-09T18:46:18.848Z,2.78
2022-11-09T18:49:08.899Z,2.88
2022-11-09T18:51:59.027Z,3.63
2022-11-09T18:54:44.693Z,3.60
2022-11-09T18:57:30.858Z,2.28
2022-11-09T19:00:17.537Z,3.40
2022-11-09T19:03:03.932Z,3.67
2022-11-09T19:05:49.595Z,2.88
2022-11-09T19:08:58.458Z,2.70
2022-11-09T19:11:44.134Z,1.80
2022-11-09T19:14:30.113Z,3.35
2022-11-09T19:17:16.593Z,2.42
2022-11-09T19:20:03.108Z,3.65
2022-11-09T19:22:49.134Z,2.83
2022-11-09T19:25:34.990Z,1.90
2022-11-09T19:28:21.258Z,2.42
2022-11-09T19:31:11.809Z,1.88
2022-11-09T19:33:57.746Z,1.75
2022-11-09T19:36:45.652Z,2.17
2022-11-09T19:39:34.735Z,1.60
2022-11-09T19:42:21.668Z,2.22
2022-11-09T19:45:11.801Z,1.80
2022-11-09T19:47:58.745Z,1.85
2022-11-09T19:50:49.748Z,2.38
2022-11-09T19:53:41.018Z,3.50
2022-11-09T19:56:30.237Z,2.20
2022-11-09T19:59:16.870Z,2.85
2022-11-09T20:02:02.498Z,1.90
2022-11-09T20:04:50.618Z,2.33
2022-11-09T20:07:36.759Z,2.63
2022-11-09T20:10:22.343Z,3.20
2022-11-09T20:13:08.528Z,3.05
2022-11-09T20:15:57.364Z,2.53
2022-11-09T20:18:43.166Z,2.65
2022-11-09T20:21:29.120Z,2.72
2022-11-09T20:24:15.210Z,3.22
2022-11-09T20:27:01.052Z,1.95
2022-11-09T20:29:46.934Z,2.75
2022-11-09T20:32:32.819Z,3.00
2022-11-09T20:35:18.733Z,2.65
2022-11-09T20:38:05.037Z,1.92
2022-11-09T20:40:58.058Z,2.13
2022-11-09T20:43:43.809Z,2.05
2022-11-09T20:46:34.514Z,1.50
2022-11-09T20:49:22.287Z,1.95
2022-11-09T20:52:07.919Z,1.80
2022-11-09T20:54:53.814Z,1.27
2022-11-09T20:57:39.850Z,2.40
2022-11-09T21:00:25.412Z,2.00
2022-11-09T21:03:11.219Z,2.22
2022-11-09T21:06:01.689Z,2.15
2022-11-09T21:08:52.464Z,1.95
2022-11-09T21:12:00.920Z,1.95
2022-11-09T21:14:46.847Z,1.90
2022-11-09T21:17:32.858Z,2.25
2022-11-09T21:20:18.891Z,2.42
2022-11-09T21:23:13.405Z,3.15
2022-11-09T21:26:18.686Z,2.28
2022-11-09T21:29:24.073Z,2.17
2022-11-09T21:32:11.500Z,1.77
2022-11-09T21:34:57.243Z,1.88
2022-11-09T21:37:42.973Z,4.55
2022-11-09T21:40:29.084Z,1.95
2022-11-09T21:43:15.371Z,1.58
2022-11-09T21:46:00.941Z,2.10
2022-11-09T21:48:46.802Z,2.00
2022-11-09T21:51:34.550Z,1.55
2022-11-09T21:54:21.155Z,1.35
2022-11-09T21:57:06.900Z,2.47
2022-11-09T21:59:52.742Z,1.67
2022-11-09T22:02:38.533Z,1.63
2022-11-09T22:05:24.393Z,1.45
2022-11-09T22:08:10.490Z,2.45
2022-11-09T22:11:08.285Z,2.10
2022-11-09T22:14:12.611Z,1.52
2022-11-09T22:16:58.950Z,1.70
2022-11-09T22:20:03.342Z,1.60
2022-11-09T22:22:49.333Z,2.17
2022-11-09T22:25:35.527Z,1.40
2022-11-09T22:28:21.313Z,2.00
2022-11-09T22:31:08.801Z,1.70
2022-11-09T22:33:55.002Z,1.30
2022-11-09T22:36:40.756Z,1.88
2022-11-09T22:39:26.590Z,1.60
2022-11-09T22:42:12.673Z,1.27
2022-11-09T22:44:58.326Z,1.85
2022-11-09T22:47:44.654Z,1.52
2022-11-09T22:50:30.526Z,2.97
2022-11-09T22:53:16.433Z,2.42
2022-11-09T22:56:03.841Z,1.23
2022-11-09T22:58:52.045Z,2.35
2022-11-09T23:01:37.943Z,1.77
2022-11-09T23:04:23.775Z,1.42
2022-11-09T23:07:09.671Z,1.30
2022-11-09T23:09:55.881Z,1.58
2022-11-09T23:12:41.667Z,1.83
2022-11-09T23:15:27.976Z,1.48
2022-11-09T23:18:32.213Z,1.70
2022-11-09T23:21:18.888Z,1.08
2022-11-09T23:24:07.023Z,1.45
2022-11-09T23:26:52.906Z,1.38
2022-11-09T23:29:38.575Z,1.55
2022-11-09T23:32:24.395Z,2.53
2022-11-09T23:35:10.488Z,1.55
2022-11-09T23:38:05.755Z,1.27
2022-11-09T23:40:51.407Z,2.00
2022-11-09T23:43:37.857Z,1.58
2022-11-09T23:46:23.776Z,1.92
2022-11-09T23:49:09.523Z,2.20
2022-11-09T23:51:55.497Z,2.00
2022-11-09T23:54:41.522Z,1.48
2022-11-09T23:57:28.029Z,1.30
